Time;durP1;ratioP1;P1;durP2;ratioP2;P2;SDS_P1;SDS_P2;PMS_P1;PMS_P2;Temp;Humidity;BMP_temperature;BMP_pressure;BME280_temperature;BME280_humidity;BME280_pressure;Samples;Min_cycle;Max_cycle;Signal;HPM_P1;HPM_P2
2022/08/18 00:00:43;;;;;;;5.72;0.60;;;;;;;25.96;53.87;98903.06;7316377;19;131153;-37
2022/08/18 00:03:10;;;;;;;13.80;1.27;;;;;;;25.87;52.92;98893.59;7313800;19;129227;-39
2022/08/18 00:05:36;;;;;;;23.00;1.95;;;;;;;26.18;57.03;98907.38;7315015;19;129440;-37
2022/08/18 00:08:02;;;;;;;38.07;3.00;;;;;;;26.28;57.55;98896.56;7314862;19;130229;-38
2022/08/18 00:10:28;;;;;;;16.35;1.48;;;;;;;26.33;57.91;98896.81;7315906;19;131770;-37
2022/08/18 00:12:53;;;;;;;15.40;1.40;;;;;;;26.37;58.25;98885.69;7314752;19;129013;-38
2022/08/18 00:15:19;;;;;;;19.83;1.93;;;;;;;26.39;57.56;98891.63;7312518;19;129360;-38
2022/08/18 00:17:45;;;;;;;29.83;2.43;;;;;;;26.39;57.07;98888.16;7315172;19;129264;-38
2022/08/18 00:20:14;;;;;;;19.67;1.87;;;;;;;26.40;58.39;98892.41;7315539;19;130305;-39
2022/08/18 00:22:40;;;;;;;15.15;1.35;;;;;;;26.40;58.44;98895.88;7313605;19;129328;-38
2022/08/18 00:25:08;;;;;;;12.45;1.15;;;;;;;26.39;57.41;98888.97;7311890;19;128865;-38
2022/08/18 00:27:36;;;;;;;33.55;2.67;;;;;;;26.39;57.53;98883.69;7314897;19;130133;-38
2022/08/18 00:30:05;;;;;;;7.53;0.80;;;;;;;26.41;58.25;98886.16;7316175;19;130806;-38
2022/08/18 00:32:34;;;;;;;14.35;1.27;;;;;;;26.41;57.74;98881.66;7313668;19;129203;-38
2022/08/18 00:35:19;;;;;;;17.92;1.65;;;;;;;26.42;59.55;98888.59;7311525;19;129031;-38
2022/08/18 00:37:47;;;;;;;16.13;1.40;;;;;;;26.36;58.14;98877.97;7314186;19;130204;-38
2022/08/18 00:40:16;;;;;;;37.35;2.97;;;;;;;26.41;59.09;98896.69;7314365;19;130298;-38
2022/08/18 00:42:49;;;;;;;15.75;1.42;;;;;;;26.41;59.20;98897.47;7314341;19;129367;-38
2022/08/18 00:45:24;;;;;;;19.13;1.77;;;;;;;26.41;59.03;98892.22;7312774;19;128912;-38
2022/08/18 00:47:49;;;;;;;14.45;1.23;;;;;;;25.99;53.62;98899.22;7313870;19;130888;-38
2022/08/18 00:50:20;;;;;;;21.50;1.80;;;;;;;26.01;55.32;98900.72;7314549;19;130048;-38
2022/08/18 00:52:52;;;;;;;38.70;3.15;;;;;;;26.22;58.71;98902.56;7313016;19;129040;-38
2022/08/18 00:55:20;;;;;;;17.90;1.50;;;;;;;26.27;57.90;98898.38;7313449;19;129420;-38
2022/08/18 00:57:49;;;;;;;7.80;1.00;;;;;;;26.35;58.64;98902.69;7313883;19;130555;-38
2022/08/18 01:00:15;;;;;;;16.13;1.50;;;;;;;26.39;57.45;98910.06;7313373;19;129845;-38
2022/08/18 01:02:46;;;;;;;37.77;3.00;;;;;;;26.41;58.96;98908.03;7311281;19;128979;-38
2022/08/18 01:05:11;;;;;;;19.77;1.73;;;;;;;26.42;58.31;98906.22;7311495;19;128797;-38
2022/08/18 01:07:46;;;;;;;14.13;1.27;;;;;;;26.43;58.46;98905.22;7313812;19;130450;-38
2022/08/18 01:10:15;;;;;;;17.35;1.65;;;;;;;26.43;58.13;98910.47;7313713;19;129205;-38
2022/08/18 01:12:46;;;;;;;14.40;1.30;;;;;;;26.41;58.26;98908.03;7312039;19;129334;-38
2022/08/18 01:15:12;;;;;;;26.55;2.28;;;;;;;26.42;58.20;98904.41;7310039;19;128850;-37
2022/08/18 01:23:19;;;;;;;11.25;1.13;;;;;;;26.42;58.31;98899.13;7314031;19;129619;-38
2022/08/18 01:25:58;;;;;;;16.52;1.50;;;;;;;26.42;58.49;98899.13;7313429;19;129124;-37
2022/08/18 01:28:28;;;;;;;16.52;1.60;;;;;;;26.43;58.18;98899.94;7313763;19;129001;-38
2022/08/18 01:30:57;;;;;;;16.15;1.48;;;;;;;26.42;58.49;98896.50;7313543;19;130271;-38
2022/08/18 01:33:25;;;;;;;36.35;3.00;;;;;;;26.13;54.49;98904.47;7311720;19;128847;-38
2022/08/18 01:35:52;;;;;;;22.77;2.00;;;;;;;26.03;53.17;98909.22;7312936;19;129192;-38
2022/08/18 01:38:19;;;;;;;;;;;;;;;26.20;58.59;98900.09;7313702;19;129579;-38
2022/08/18 01:40:45;;;;;;;13.75;1.25;;;;;;;26.30;57.53;98900.63;7312112;19;131362;-38
2022/08/18 01:43:12;;;;;;;34.97;2.80;;;;;;;26.35;57.49;98907.97;7311282;19;129563;-38
2022/08/18 01:45:39;;;;;;;19.05;1.83;;;;;;;26.38;57.55;98908.41;7312525;19;129218;-38
2022/08/18 01:48:05;;;;;;;13.75;1.20;;;;;;;26.42;57.33;98899.13;7312517;19;129167;-37
2022/08/18 01:50:33;;;;;;;14.40;1.30;;;;;;;26.42;58.33;98899.13;7311836;19;129371;-39
2022/08/18 01:52:59;;;;;;;31.83;2.67;;;;;;;26.35;57.65;98887.72;7312289;19;129315;-38
2022/08/18 01:55:27;;;;;;;16.23;1.47;;;;;;;26.43;57.57;98889.38;7312777;19;129206;-38
2022/08/18 01:57:53;;;;;;;14.98;1.48;;;;;;;26.43;58.22;98898.13;7312647;19;129222;-38
2022/08/18 02:00:18;;;;;;;19.38;1.80;;;;;;;26.44;58.29;98902.41;7311925;19;130369;-37
2022/08/18 02:02:45;;;;;;;30.87;2.50;;;;;;;26.44;58.20;98897.13;7311932;19;130303;-38
2022/08/18 02:05:17;;;;;;;28.10;2.30;;;;;;;26.44;58.29;98899.78;7308973;19;129035;-38
2022/08/18 02:07:42;;;;;;;22.05;1.85;;;;;;;26.46;57.77;98900.38;7312022;19;130158;-38
2022/08/18 02:10:09;;;;;;;15.77;1.37;;;;;;;26.45;58.05;98896.13;7311120;19;129633;-38
2022/08/18 02:12:35;;;;;;;31.67;3.10;;;;;;;26.46;58.44;98903.00;7310119;19;128835;-38
2022/08/18 02:15:01;;;;;;;26.23;2.33;;;;;;;26.47;58.27;98906.47;7312127;19;129260;-37
2022/08/18 02:17:26;;;;;;;15.03;1.40;;;;;;;26.47;58.18;98899.41;7318726;19;129148;-38
2022/08/18 02:19:52;;;;;;;11.43;1.20;;;;;;;26.38;56.84;98884.69;7318064;19;130987;-38
2022/08/18 02:22:19;;;;;;;31.87;2.77;;;;;;;26.04;53.55;98899.50;7318156;19;129081;-38
2022/08/18 02:24:45;;;;;;;25.35;2.10;;;;;;;26.00;54.40;98888.50;7316770;19;129400;-38
2022/08/18 02:27:12;;;;;;;17.52;1.73;;;;;;;26.26;57.22;98899.34;7318320;19;130366;-38
2022/08/18 02:29:38;;;;;;;15.73;1.48;;;;;;;26.35;57.66;98900.06;7318146;19;129333;-38
2022/08/18 02:32:05;;;;;;;37.03;3.27;;;;;;;26.39;58.12;98888.97;7317276;19;128962;-37
2022/08/18 02:34:30;;;;;;;26.33;2.28;;;;;;;26.42;57.78;98885.97;7317808;19;129249;-38
2022/08/18 02:36:58;;;;;;;15.87;1.53;;;;;;;26.44;58.61;98878.69;7318148;19;130292;-37
2022/08/18 02:39:23;;;;;;;17.13;1.58;;;;;;;26.46;57.66;98881.94;7317960;19;129795;-38
2022/08/18 02:41:50;;;;;;;33.40;2.80;;;;;;;26.45;58.30;98880.31;7317457;19;129023;-38
2022/08/18 02:44:15;;;;;;;;;;;;;;;26.52;59.58;98883.81;7317095;19;129144;-38
2022/08/18 02:46:41;;;;;;;15.23;1.40;;;;;;;26.48;57.29;98882.56;7317913;19;130029;-38
2022/08/18 02:49:06;;;;;;;2.83;0.50;;;;;;;26.48;58.60;98882.56;7316936;19;129259;-38
2022/08/18 02:51:32;;;;;;;42.27;3.83;;;;;;;26.47;58.33;98880.94;7316606;19;129077;-38
2022/08/18 02:53:58;;;;;;;7.23;0.80;;;;;;;26.45;58.34;98872.41;7316213;19;128983;-38
2022/08/18 02:56:28;;;;;;;20.20;2.00;;;;;;;26.45;58.83;98867.13;7316812;19;129259;-37
2022/08/18 02:59:03;;;;;;;16.15;1.55;;;;;;;26.44;59.40;98857.59;7316817;19;129423;-38
2022/08/18 03:01:31;;;;;;;36.17;3.28;;;;;;;26.45;58.27;98861.84;7317368;19;128696;-38
2022/08/18 03:03:58;;;;;;;35.65;2.85;;;;;;;26.45;58.36;98861.84;7315913;19;129568;-37
2022/08/18 03:06:24;;;;;;;17.48;1.65;;;;;;;26.47;58.55;98862.50;7317987;19;129569;-38
2022/08/18 03:08:51;;;;;;;;;;;;;;;26.00;53.69;98856.09;7316557;19;129296;-38
2022/08/18 03:11:18;;;;;;;21.17;2.05;;;;;;;26.02;54.51;98854.91;7316506;19;129283;-39
2022/08/18 03:13:44;;;;;;;36.30;2.97;;;;;;;26.23;56.97;98854.94;7314999;19;129438;-37
2022/08/18 03:16:09;;;;;;;6.07;0.77;;;;;;;26.34;58.17;98859.72;7317491;19;129387;-39
2022/08/18 03:18:35;;;;;;;18.60;1.77;;;;;;;26.37;57.47;98859.34;7315944;19;130345;-40
2022/08/18 03:21:09;;;;;;;20.87;1.90;;;;;;;26.41;59.48;98860.59;7316920;19;129349;-39
2022/08/18 03:23:36;;;;;;;54.42;4.68;;;;;;;26.42;57.94;98867.50;7315417;19;129932;-39
2022/08/18 03:26:02;;;;;;;16.40;1.52;;;;;;;26.44;58.54;98865.50;7316616;19;130784;-37
2022/08/18 03:28:27;;;;;;;7.13;0.97;;;;;;;26.45;57.94;98861.84;7317056;19;130342;-39
2022/08/18 03:30:54;;;;;;;15.60;1.43;;;;;;;26.46;58.27;98860.84;7316844;19;129015;-40
2022/08/18 03:33:19;;;;;;;35.38;3.00;;;;;;;26.46;57.59;98860.84;7315172;19;129498;-37
2022/08/18 03:35:45;;;;;;;9.77;1.17;;;;;;;26.47;58.20;98865.13;7317500;19;130051;-39
2022/08/18 03:38:10;;;;;;;19.33;1.90;;;;;;;26.46;58.21;98868.75;7316600;19;130339;-40
2022/08/18 03:40:36;;;;;;;16.43;1.53;;;;;;;26.47;58.50;98867.75;7316930;19;129062;-41
2022/08/18 03:43:06;;;;;;;36.50;3.10;;;;;;;26.48;58.16;98868.56;7315997;19;129819;-39
2022/08/18 03:45:33;;;;;;;16.10;1.55;;;;;;;26.47;58.39;98873.03;7315161;19;130619;-40
2022/08/18 03:48:00;;;;;;;14.70;1.45;;;;;;;26.48;58.47;98865.91;7315758;19;130458;-39
2022/08/18 03:50:26;;;;;;;15.50;1.50;;;;;;;26.47;57.58;98854.56;7315476;19;128761;-39
2022/08/18 03:52:52;;;;;;;;;;;;;;;26.57;59.69;98868.25;7314991;19;129419;-39
2022/08/18 03:55:18;;;;;;;15.63;1.45;;;;;;;26.04;53.95;98862.63;7314768;19;130452;-39
2022/08/18 03:57:44;;;;;;;14.70;1.50;;;;;;;26.05;54.13;98864.28;7315944;19;130324;-40
2022/08/18 04:00:11;;;;;;;13.77;1.27;;;;;;;26.27;57.36;98868.56;7315591;19;129412;-40
2022/08/18 04:02:37;;;;;;;44.38;3.55;;;;;;;26.35;57.48;98863.97;7315017;19;129730;-40
2022/08/18 04:05:04;;;;;;;19.30;1.80;;;;;;;26.39;58.42;98867.88;7313514;19;130254;-39
2022/08/18 04:07:29;;;;;;;8.57;1.13;;;;;;;26.45;57.79;98872.41;7314703;19;129417;-39
2022/08/18 04:09:55;;;;;;;29.13;2.63;;;;;;;26.45;57.36;98867.13;7313125;19;128834;-39
2022/08/18 04:12:20;;;;;;;29.70;2.53;;;;;;;26.47;58.69;98878.31;7313923;19;129361;-39
2022/08/18 04:14:48;;;;;;;4.20;0.50;;;;;;;26.46;57.19;98874.00;7314216;19;130148;-39
2022/08/18 04:17:23;;;;;;;5.53;0.68;;;;;;;26.47;58.11;98880.13;7314887;19;129554;-39
2022/08/18 04:19:48;;;;;;;19.63;1.92;;;;;;;26.48;57.87;98887.84;7314487;19;129040;-40
2022/08/18 04:22:15;;;;;;;39.17;3.20;;;;;;;26.48;57.33;98881.72;7313235;19;129454;-39
2022/08/18 04:24:42;;;;;;;14.20;1.52;;;;;;;26.50;58.15;98885.84;7312934;19;129139;-39
2022/08/18 04:27:07;;;;;;;14.80;1.45;;;;;;;26.51;57.61;98876.09;7314392;19;130628;-40
2022/08/18 04:29:33;;;;;;;15.73;1.57;;;;;;;26.50;57.79;98870.00;7315040;19;128988;-39
2022/08/18 04:32:03;;;;;;;44.67;3.80;;;;;;;26.52;58.70;98877.72;7313651;19;129514;-40
2022/08/18 04:34:29;;;;;;;28.60;2.92;;;;;;;26.51;57.39;98884.81;7313805;19;131033;-37
2022/08/18 04:36:54;;;;;;;10.53;1.10;;;;;;;26.51;58.12;98886.66;7313105;19;130008;-39
2022/08/18 04:39:20;;;;;;;15.80;1.43;;;;;;;26.51;58.05;98879.53;7314319;19;129594;-38
2022/08/18 04:41:47;;;;;;;37.43;3.40;;;;;;;26.14;54.37;98885.06;7314112;19;128823;-40
2022/08/18 04:44:12;;;;;;;7.18;0.88;;;;;;;26.02;53.14;98889.16;7314369;19;130571;-38
2022/08/18 04:46:45;;;;;;;15.37;1.53;;;;;;;26.23;57.72;98893.66;7315826;19;130993;-40
2022/08/18 04:49:10;;;;;;;18.60;1.65;;;;;;;26.37;57.24;98900.69;7314382;19;129308;-38
2022/08/18 04:51:40;;;;;;;26.07;2.33;;;;;;;26.41;58.63;98892.22;7313672;19;129439;-40
2022/08/18 04:54:05;;;;;;;21.60;1.88;;;;;;;26.43;57.73;98895.47;7312737;19;130325;-40
2022/08/18 04:56:33;;;;;;;18.17;1.70;;;;;;;26.38;57.73;98881.22;7314133;19;129202;-40
2022/08/18 04:58:59;;;;;;;4.75;0.63;;;;;;;26.48;57.68;98903.66;7314026;19;129305;-40
2022/08/18 05:01:28;;;;;;;43.13;3.80;;;;;;;26.48;57.61;98898.38;7313399;19;129364;-40
2022/08/18 05:03:55;;;;;;;30.00;2.67;;;;;;;26.48;57.53;98898.38;7312975;19;129970;-40
2022/08/18 05:06:25;;;;;;;15.82;1.50;;;;;;;26.41;57.84;98884.31;7314415;19;129673;-40
2022/08/18 05:08:53;;;;;;;14.50;1.40;;;;;;;26.51;57.61;98897.19;7313201;19;129300;-40
2022/08/18 05:11:20;;;;;;;10.75;1.08;;;;;;;26.51;58.39;98903.25;7313475;19;128940;-40
2022/08/18 05:13:46;;;;;;;26.08;2.38;;;;;;;26.52;57.86;98898.81;7311458;19;130159;-39
2022/08/18 05:16:11;;;;;;;15.20;1.57;;;;;;;26.52;58.55;98897.00;7313541;19;130776;-40
2022/08/18 05:18:39;;;;;;;13.90;1.40;;;;;;;26.50;58.31;98899.00;7313771;19;129400;-41
2022/08/18 05:21:06;;;;;;;21.30;2.05;;;;;;;26.49;58.54;98900.03;7312138;19;129171;-38
2022/08/18 05:23:31;;;;;;;37.78;3.22;;;;;;;26.46;57.65;98899.59;7311372;19;130350;-38
2022/08/18 05:26:02;;;;;;;12.87;1.40;;;;;;;26.47;59.06;98895.94;7311940;19;130661;-41
2022/08/18 05:28:29;;;;;;;16.25;1.52;;;;;;;26.50;57.61;98909.56;7313265;19;129044;-39
2022/08/18 05:30:55;;;;;;;16.88;1.70;;;;;;;26.03;53.75;98903.94;7313301;19;128783;-41
2022/08/18 05:33:21;;;;;;;37.15;2.85;;;;;;;26.06;54.15;98903.59;7311514;19;129404;-42
2022/08/18 05:36:00;;;;;;;15.03;1.47;;;;;;;26.27;57.63;98905.44;7313087;19;129376;-40
2022/08/18 05:38:36;;;;;;;16.95;1.60;;;;;;;26.38;58.83;98894.41;7313237;19;128878;-39
2022/08/18 05:41:06;;;;;;;15.65;1.60;;;;;;;26.43;58.85;98898.13;7312574;19;129188;-40
2022/08/18 05:43:33;;;;;;;16.60;1.50;;;;;;;26.45;57.49;98898.75;7310341;19;129194;-40
2022/08/18 05:46:00;;;;;;;;;;;;;;;26.55;59.45;98903.72;7310617;19;130012;-41
2022/08/18 05:48:25;;;;;;;17.15;1.77;;;;;;;26.42;58.16;98893.88;7312916;19;129536;-41
2022/08/18 05:50:52;;;;;;;10.83;1.20;;;;;;;26.49;57.12;98905.31;7312158;19;129529;-42
2022/08/18 05:53:18;;;;;;;16.10;1.60;;;;;;;26.51;58.09;98910.38;7310932;19;129234;-41
2022/08/18 05:58:51;;;;;;;15.00;1.42;;;;;;;26.50;57.98;98912.19;7312631;19;128707;-41
2022/08/18 06:01:35;;;;;;;42.47;3.45;;;;;;;26.50;59.28;98906.91;7312137;19;129421;-41
2022/08/18 06:04:06;;;;;;;37.92;3.22;;;;;;;26.49;58.49;98905.31;7311063;19;129510;-39
2022/08/18 06:06:35;;;;;;;14.93;1.48;;;;;;;26.49;58.31;98905.31;7312644;19;129942;-40
2022/08/18 06:09:18;;;;;;;14.45;1.42;;;;;;;26.48;59.39;98908.91;7311965;19;129021;-40
2022/08/18 06:11:44;;;;;;;25.45;2.65;;;;;;;26.51;58.01;98908.53;7310412;19;129230;-42
2022/08/18 06:14:10;;;;;;;12.53;1.30;;;;;;;26.49;58.16;98904.47;7309868;19;129289;-41
2022/08/18 06:16:52;;;;;;;43.43;3.70;;;;;;;26.13;53.45;98907.13;7311066;19;129766;-38
2022/08/18 06:19:37;;;;;;;31.58;2.65;;;;;;;25.93;53.36;98892.88;7311607;19;129543;-41
2022/08/18 06:22:11;;;;;;;26.77;2.30;;;;;;;26.27;58.43;98906.28;7307893;19;128874;-40
2022/08/18 06:24:48;;;;;;;16.75;1.50;;;;;;;26.30;58.79;98898.00;7309611;19;129547;-40
2022/08/18 06:27:50;;;;;;;7.18;0.88;;;;;;;26.45;58.94;98908.47;7311273;19;129429;-41
2022/08/18 06:30:23;;;;;;;3.10;0.60;;;;;;;26.46;59.24;98910.91;7313056;19;129298;-40
2022/08/18 06:33:17;;;;;;;16.30;1.65;;;;;;;26.47;59.37;98909.13;7310996;19;129009;-42
2022/08/18 06:35:51;;;;;;;15.15;1.50;;;;;;;26.49;59.13;98907.13;7311596;19;129189;-42
2022/08/18 06:41:06;;;;;;;22.05;2.25;;;;;;;26.47;58.91;98907.31;7311670;19;130002;-40
2022/08/18 06:43:34;;;;;;;9.73;1.23;;;;;;;26.48;58.35;98916.84;7308150;19;128919;-40
2022/08/18 06:46:07;;;;;;;39.35;3.28;;;;;;;26.47;58.09;98902.03;7308624;19;129932;-41
2022/08/18 06:48:42;;;;;;;26.60;2.30;;;;;;;26.49;59.32;98907.13;7311171;19;129706;-41
2022/08/18 06:51:11;;;;;;;22.80;2.47;;;;;;;26.47;57.96;98907.31;7310901;19;128688;-38
2022/08/18 06:53:54;;;;;;;18.00;1.77;;;;;;;26.49;59.68;98905.31;7308857;19;129366;-41
2022/08/18 06:56:32;;;;;;;18.48;1.88;;;;;;;26.50;59.68;98906.91;7310263;19;130308;-41
2022/08/18 06:59:19;;;;;;;14.85;1.55;;;;;;;26.52;59.58;98910.19;7309928;19;130340;-40
2022/08/18 07:01:50;;;;;;;17.00;1.87;;;;;;;26.42;59.05;98887.78;7313578;19;129257;-42
2022/08/18 07:04:40;;;;;;;27.80;2.45;;;;;;;26.13;53.82;98904.47;7315305;19;129472;-39
2022/08/18 07:07:28;;;;;;;7.82;0.90;;;;;;;26.03;53.11;98903.94;7317325;19;129104;-41
2022/08/18 07:09:53;;;;;;;32.90;2.80;;;;;;;26.27;56.71;98903.63;7318172;19;129257;-42
2022/08/18 07:12:28;;;;;;;28.77;2.47;;;;;;;26.37;58.13;98906.78;7317370;19;128833;-40
2022/08/18 07:15:00;;;;;;;14.60;1.63;;;;;;;26.41;58.72;98909.88;7315284;19;128748;-41
2022/08/18 07:17:25;;;;;;;14.18;1.33;;;;;;;26.44;57.73;98910.31;7317193;19;130224;-39
2022/08/18 07:20:05;;;;;;;16.30;1.63;;;;;;;26.47;59.07;98909.13;7316554;19;129161;-42
2022/08/18 07:22:31;;;;;;;22.10;1.95;;;;;;;26.48;58.02;98908.91;7315697;19;129140;-42
2022/08/18 07:25:02;;;;;;;19.30;1.77;;;;;;;26.41;58.59;98896.69;7314449;19;129561;-40
2022/08/18 07:27:47;;;;;;;15.15;1.50;;;;;;;26.48;59.85;98903.66;7317006;19;130323;-40
2022/08/18 07:30:18;;;;;;;16.10;1.60;;;;;;;26.49;59.14;98918.47;7317968;19;129272;-40
2022/08/18 07:32:48;;;;;;;16.17;1.60;;;;;;;26.41;58.10;98908.03;7316029;19;128942;-41
2022/08/18 07:35:22;;;;;;;14.73;1.42;;;;;;;26.48;59.07;98918.63;7313439;19;129383;-42
2022/08/18 07:37:53;;;;;;;17.02;1.80;;;;;;;26.51;58.39;98918.28;7315637;19;129146;-42
2022/08/18 07:40:26;;;;;;;33.17;2.85;;;;;;;26.49;59.33;98913.22;7316225;19;129407;-38
2022/08/18 07:43:20;;;;;;;17.85;1.65;;;;;;;26.44;59.33;98910.31;7316621;19;129405;-40
2022/08/18 07:45:46;;;;;;;20.35;1.92;;;;;;;26.49;57.22;98918.47;7312188;19;129320;-40
2022/08/18 07:48:16;;;;;;;19.13;2.07;;;;;;;26.49;58.47;98921.13;7315493;19;130381;-40
2022/08/18 07:50:48;;;;;;;16.30;1.73;;;;;;;26.37;55.26;98927.88;7315813;19;129290;-39
2022/08/18 07:53:57;;;;;;;24.65;2.15;;;;;;;26.02;53.00;98938.38;7314329;19;129478;-40
2022/08/18 07:56:31;;;;;;;14.95;1.60;;;;;;;26.20;56.47;98937.00;7314684;19;128934;-41
2022/08/18 07:59:03;;;;;;;6.30;0.82;;;;;;;26.33;59.25;98937.16;7315815;19;131153;-42
2022/08/18 08:01:47;;;;;;;37.83;3.38;;;;;;;26.41;58.70;98937.03;7314914;19;130363;-41
2022/08/18 08:04:37;;;;;;;38.88;3.13;;;;;;;26.45;59.12;98932.19;7313770;19;128920;-40
2022/08/18 08:07:11;;;;;;;47.80;4.13;;;;;;;26.46;59.46;98926.75;7314358;19;128790;-41
2022/08/18 08:09:59;;;;;;;14.35;1.40;;;;;;;26.47;59.42;98928.38;7316337;19;130174;-41
2022/08/18 08:12:40;;;;;;;36.50;2.95;;;;;;;26.46;58.66;98926.75;7314256;19;129365;-40
2022/08/18 08:15:16;;;;;;;24.30;2.28;;;;;;;26.46;57.45;98926.75;7313972;19;128997;-40
2022/08/18 08:18:00;;;;;;;14.52;1.48;;;;;;;26.49;59.69;98923.75;7315539;19;129262;-38
2022/08/18 08:20:38;;;;;;;15.48;1.45;;;;;;;26.48;58.98;98929.19;7315356;19;129350;-38
2022/08/18 08:23:26;;;;;;;14.90;1.40;;;;;;;26.48;59.18;98923.91;7314046;19;129479;-41
2022/08/18 08:26:17;;;;;;;9.55;1.02;;;;;;;26.51;59.80;98929.63;7314002;19;129093;-41
2022/08/18 08:29:20;;;;;;;15.30;1.45;;;;;;;26.44;60.33;98917.41;7316406;19;129311;-40
2022/08/18 08:31:59;;;;;;;19.42;1.88;;;;;;;26.50;60.10;98933.28;7314437;19;131005;-40
2022/08/18 08:34:44;;;;;;;15.60;1.50;;;;;;;26.51;59.51;98937.53;7313835;19;129628;-41
2022/08/18 08:37:16;;;;;;;10.05;1.20;;;;;;;26.49;59.54;98936.13;7315346;19;129920;-42
2022/08/18 08:39:56;;;;;;;16.42;1.60;;;;;;;26.03;53.72;98934.78;7314344;19;129150;-41
2022/08/18 08:42:37;;;;;;;17.30;1.73;;;;;;;26.10;56.03;98941.75;7313496;19;129607;-42
2022/08/18 08:45:10;;;;;;;6.43;0.75;;;;;;;26.29;58.50;98951.72;7311700;19;131170;-41
2022/08/18 08:47:46;;;;;;;35.60;3.17;;;;;;;26.38;58.59;98947.94;7314616;19;128930;-41
2022/08/18 08:50:18;;;;;;;28.33;2.43;;;;;;;26.43;58.56;98942.94;7314537;19;128962;-40
2022/08/18 08:52:57;;;;;;;31.02;2.83;;;;;;;26.46;59.17;98932.00;7314182;19;129226;-41
2022/08/18 08:55:27;;;;;;;15.88;1.48;;;;;;;26.47;58.29;98928.38;7312172;19;129221;-38
2022/08/18 08:58:10;;;;;;;20.55;2.05;;;;;;;26.43;59.74;98911.31;7314457;19;130648;-41
2022/08/18 09:00:38;;;;;;;14.10;1.45;;;;;;;26.48;57.50;98921.28;7313706;19;129110;-41
2022/08/18 09:03:22;;;;;;;23.38;2.00;;;;;;;26.51;59.54;98911.19;7313110;19;129973;-41
2022/08/18 09:06:20;;;;;;;25.58;2.17;;;;;;;26.44;60.11;98907.69;7312125;19;129859;-41
2022/08/18 09:08:56;;;;;;;15.13;1.40;;;;;;;26.48;59.26;98911.56;7312937;19;129375;-40
2022/08/18 09:11:40;;;;;;;21.87;2.40;;;;;;;26.51;60.02;98903.25;7313897;19;129438;-40
2022/08/18 09:14:27;;;;;;;33.33;2.78;;;;;;;26.50;59.87;98901.66;7312658;19;130633;-38
2022/08/18 09:17:11;;;;;;;24.98;2.13;;;;;;;26.50;60.03;98899.00;7310932;19;129378;-37
2022/08/18 09:19:55;;;;;;;32.00;2.65;;;;;;;26.50;59.52;98901.66;7313467;19;129090;-38
2022/08/18 09:22:29;;;;;;;37.40;3.00;;;;;;;26.49;57.74;98905.31;7312712;19;128769;-38
2022/08/18 09:24:56;;;;;;;22.63;1.98;;;;;;;26.48;58.56;98900.19;7309584;19;130921;-38
2022/08/18 09:27:43;;;;;;;15.02;1.42;;;;;;;26.04;53.70;98895.06;7313359;19;130559;-38
2022/08/18 09:30:40;;;;;;;9.45;1.23;;;;;;;26.13;57.62;98893.94;7312621;19;128765;-38
2022/08/18 09:33:30;;;;;;;19.30;1.80;;;;;;;26.32;58.99;98888.09;7313198;19;129369;-37
2022/08/18 09:36:19;;;;;;;15.70;1.50;;;;;;;26.39;58.44;98886.34;7313649;19;129354;-38
2022/08/18 09:42:32;;;;;;;15.02;1.58;;;;;;;26.47;59.22;98875.66;7309519;19;129333;-38
2022/08/18 09:45:02;;;;;;;18.63;1.75;;;;;;;26.47;58.73;98880.13;7309359;19;128896;-38
2022/08/18 09:47:27;;;;;;;34.70;2.80;;;;;;;26.46;57.12;98874.00;7312510;19;131074;-38
2022/08/18 09:50:16;;;;;;;17.07;1.60;;;;;;;26.45;59.08;98877.66;7313009;19;130401;-38
2022/08/18 09:52:41;;;;;;;14.38;1.35;;;;;;;26.46;58.21;98866.09;7312372;19;129010;-38
2022/08/18 09:55:26;;;;;;;16.17;1.57;;;;;;;26.47;59.91;98873.03;7309924;19;130315;-37
2022/08/18 09:58:24;;;;;;;4.05;0.63;;;;;;;26.49;59.52;98868.41;7312436;19;130247;-37
2022/08/18 10:01:28;;;;;;;15.93;1.48;;;;;;;26.50;60.13;98867.38;7310837;19;131435;-38
2022/08/18 10:04:12;;;;;;;4.18;0.50;;;;;;;26.49;59.99;98860.47;7311886;19;128842;-39
2022/08/18 10:06:39;;;;;;;1.88;0.38;;;;;;;26.47;57.97;98851.94;7310721;19;128912;-38
2022/08/18 10:09:36;;;;;;;15.32;1.40;;;;;;;26.49;59.71;98851.75;7311391;19;129292;-38
2022/08/18 10:12:22;;;;;;;17.90;1.80;;;;;;;26.48;58.20;98850.94;7310917;19;130812;-37
2022/08/18 10:15:02;;;;;;;4.63;0.60;;;;;;;26.04;52.97;98847.66;7310305;19;129016;-37
2022/08/18 10:17:52;;;;;;;14.75;1.35;;;;;;;26.14;56.85;98840.25;7311556;19;129001;-38
2022/08/18 10:20:37;;;;;;;16.08;1.65;;;;;;;26.33;58.41;98852.00;7311926;19;130716;-38
2022/08/18 10:23:06;;;;;;;16.85;1.67;;;;;;;26.37;57.63;98851.44;7310587;19;129824;-38
2022/08/18 10:25:41;;;;;;;16.65;1.48;;;;;;;26.44;57.82;98857.59;7309200;19;128982;-38
2022/08/18 10:28:33;;;;;;;31.67;2.65;;;;;;;26.45;58.57;98856.59;7311495;19;129254;-38
2022/08/18 10:31:04;;;;;;;25.17;2.17;;;;;;;26.47;58.01;98857.22;7311186;19;130241;-38
2022/08/18 10:34:10;;;;;;;35.15;2.95;;;;;;;26.51;59.73;98861.09;7310102;19;130357;-38
2022/08/18 10:36:39;;;;;;;20.88;1.90;;;;;;;26.48;58.55;98861.47;7310633;19;129714;-38
2022/08/18 10:39:18;;;;;;;53.13;4.45;;;;;;;26.49;59.22;98862.28;7314079;19;129197;-38
2022/08/18 10:41:55;;;;;;;35.78;3.20;;;;;;;26.51;59.35;98865.56;7314830;19;129459;-38
2022/08/18 10:44:21;;;;;;;;;;;;;;;26.56;59.04;98863.19;7317758;19;130272;-38
2022/08/18 10:46:47;;;;;;;12.88;1.33;;;;;;;26.44;58.18;98849.69;7315606;19;129164;-38
2022/08/18 10:49:13;;;;;;;23.98;2.38;;;;;;;26.51;58.40;98863.72;7317462;19;129105;-38
2022/08/18 10:52:26;;;;;;;62.53;5.47;;;;;;;26.53;59.27;98864.34;7316784;19;130306;-38
2022/08/18 10:55:03;;;;;;;15.02;1.38;;;;;;;26.50;60.02;98859.47;7311003;19;131314;-37
2022/08/18 10:57:51;;;;;;;31.58;2.67;;;;;;;26.50;58.41;98854.19;7315786;19;129412;-38
2022/08/18 11:00:19;;;;;;;23.73;2.08;;;;;;;26.16;53.67;98854.06;7317364;19;129329;-38
2022/08/18 11:03:13;;;;;;;29.88;2.45;;;;;;;25.96;52.87;98850.38;7316562;19;130078;-37
2022/08/18 11:05:39;;;;;;;40.70;3.22;;;;;;;26.26;56.65;98867.72;7316065;19;130342;-38
2022/08/18 11:08:11;;;;;;;6.80;1.00;;;;;;;26.29;57.19;98856.84;7317461;19;129233;-37
2022/08/18 11:10:46;;;;;;;4.60;0.80;;;;;;;26.41;58.75;98865.06;7317846;19;129754;-38
2022/08/18 11:13:30;;;;;;;16.00;1.50;;;;;;;26.45;58.94;98869.75;7315737;19;130319;-38
2022/08/18 11:16:29;;;;;;;15.18;1.42;;;;;;;26.48;59.19;98866.75;7316567;19;131292;-38
2022/08/18 11:19:09;;;;;;;15.48;1.33;;;;;;;26.51;59.29;98884.81;7317565;19;128826;-38
2022/08/18 11:21:37;;;;;;;31.05;3.17;;;;;;;26.48;58.82;98877.28;7316388;19;129009;-38
2022/08/18 11:24:08;;;;;;;10.25;1.00;;;;;;;26.48;57.15;98879.94;7315236;19;130039;-37
2022/08/18 11:26:37;;;;;;;40.90;3.35;;;;;;;26.47;57.92;98882.75;7316193;19;130926;-37
2022/08/18 11:29:20;;;;;;;6.68;1.02;;;;;;;26.49;59.59;98883.38;7316815;19;129142;-38
2022/08/18 11:31:52;;;;;;;16.90;1.60;;;;;;;26.48;58.16;98887.00;7316217;19;130331;-38
2022/08/18 11:34:26;;;;;;;15.10;1.58;;;;;;;26.47;58.84;98891.47;7314767;19;129123;-38
2022/08/18 11:37:01;;;;;;;13.80;1.27;;;;;;;26.47;59.20;98894.13;7316521;19;129357;-38
2022/08/18 11:39:28;;;;;;;19.33;1.85;;;;;;;26.47;59.12;98891.47;7315364;19;129805;-37
2022/08/18 11:41:54;;;;;;;29.58;2.50;;;;;;;26.41;58.41;98884.31;7314742;19;128968;-38
2022/08/18 11:44:23;;;;;;;17.13;1.63;;;;;;;26.48;58.78;98885.19;7314788;19;129307;-38
2022/08/18 11:46:54;;;;;;;15.88;1.38;;;;;;;26.45;56.91;98893.50;7313304;19;130406;-35
2022/08/18 11:49:32;;;;;;;17.52;1.60;;;;;;;26.04;53.43;98894.25;7316053;19;128987;-38
2022/08/18 11:52:16;;;;;;;21.70;2.03;;;;;;;26.18;57.88;98901.31;7314519;19;129272;-37
2022/08/18 11:54:48;;;;;;;23.63;1.98;;;;;;;26.33;58.71;98908.16;7313790;19;130241;-38
2022/08/18 11:57:40;;;;;;;38.40;3.08;;;;;;;26.41;58.94;98902.75;7315705;19;130418;-38
2022/08/18 12:00:40;;;;;;;41.97;3.58;;;;;;;26.38;59.52;98881.22;7315157;19;129501;-38